createdAt,value
2017-06-24T00:00:00.838Z,11.90
2017-06-24T00:02:34.671Z,9.00
2017-06-24T00:05:06.976Z,10.40
2017-06-24T00:07:39.219Z,8.97
2017-06-24T00:10:11.655Z,9.63
2017-06-24T00:12:44.596Z,8.53
2017-06-24T00:15:16.765Z,10.37
2017-06-24T00:17:48.934Z,11.10
2017-06-24T00:20:21.621Z,11.60
2017-06-24T00:22:53.656Z,8.50
2017-06-24T00:25:26.997Z,13.20
2017-06-24T00:27:59.834Z,9.53
2017-06-24T00:30:32.003Z,13.47
2017-06-24T00:33:04.559Z,13.30
2017-06-24T00:35:36.655Z,8.57
2017-06-24T00:38:09.032Z,12.57
2017-06-24T00:40:41.442Z,9.50
2017-06-24T00:43:13.843Z,10.43
2017-06-24T00:45:46.246Z,9.47
2017-06-24T00:48:18.891Z,10.33
2017-06-24T00:50:51.280Z,7.50
2017-06-24T00:53:23.699Z,8.10
2017-06-24T00:55:56.163Z,10.53
2017-06-24T00:58:28.563Z,7.30
2017-06-24T01:01:01.404Z,8.13
2017-06-24T01:03:33.503Z,8.23
2017-06-24T01:06:05.760Z,10.37
2017-06-24T01:08:38.132Z,8.17
2017-06-24T01:11:12.144Z,12.30
2017-06-24T01:13:44.899Z,7.13
2017-06-24T01:16:17.571Z,10.47
2017-06-24T01:18:49.772Z,9.83
2017-06-24T01:21:22.200Z,10.73
2017-06-24T01:23:54.999Z,9.33
2017-06-24T01:26:27.048Z,10.20
2017-06-24T01:28:59.768Z,7.70
2017-06-24T01:31:31.819Z,8.30
2017-06-24T01:34:04.370Z,11.23
2017-06-24T01:36:36.665Z,7.57
2017-06-24T01:39:09.287Z,8.40
2017-06-24T01:41:41.488Z,11.83
2017-06-24T01:44:14.339Z,8.00
2017-06-24T01:46:46.363Z,7.57
2017-06-24T01:49:19.591Z,8.67
2017-06-24T01:51:52.280Z,10.50
2017-06-24T01:54:24.767Z,7.73
2017-06-24T01:56:57.088Z,7.53
2017-06-24T01:59:30.451Z,7.90
2017-06-24T02:02:02.787Z,9.00
2017-06-24T02:04:35.302Z,11.50
2017-06-24T02:07:07.600Z,10.70
2017-06-24T02:09:39.923Z,7.83
2017-06-24T02:12:11.756Z,7.83
2017-06-24T02:14:44.148Z,7.23
2017-06-24T02:17:16.510Z,9.73
2017-06-24T02:19:48.816Z,7.33
2017-06-24T02:22:21.164Z,7.00
2017-06-24T02:24:53.623Z,8.60
2017-06-24T02:27:26.285Z,7.90
2017-06-24T02:30:00.482Z,7.30
2017-06-24T02:32:32.940Z,7.37
2017-06-24T02:35:05.408Z,13.00
2017-06-24T02:37:37.675Z,9.00
2017-06-24T02:40:10.303Z,7.07
2017-06-24T02:42:42.462Z,9.90
2017-06-24T02:45:14.960Z,7.67
2017-06-24T02:47:47.248Z,8.90
2017-06-24T02:50:19.716Z,6.93
2017-06-24T02:52:52.174Z,7.77
2017-06-24T02:55:24.845Z,6.37
2017-06-24T02:57:57.302Z,7.23
2017-06-24T03:00:29.564Z,6.90
2017-06-24T03:03:01.864Z,6.70
2017-06-24T03:05:33.983Z,7.80
2017-06-24T03:08:06.408Z,9.00
2017-06-24T03:10:38.919Z,6.47
2017-06-24T03:13:11.000Z,9.57
2017-06-24T03:15:43.495Z,7.30
2017-06-24T03:18:15.803Z,5.67
2017-06-24T03:20:48.284Z,7.57
2017-06-24T03:23:20.683Z,8.00
2017-06-24T03:25:53.304Z,9.00
2017-06-24T03:28:26.211Z,7.07
2017-06-24T03:30:58.768Z,7.20
2017-06-24T03:33:31.400Z,11.30
2017-06-24T03:36:03.745Z,6.67
2017-06-24T03:38:36.009Z,10.07
2017-06-24T03:41:08.572Z,6.10
2017-06-24T03:43:40.866Z,6.07
2017-06-24T03:46:13.277Z,9.97
2017-06-24T03:48:45.635Z,5.47
2017-06-24T03:51:18.001Z,7.40
2017-06-24T03:53:50.442Z,6.13
2017-06-24T03:56:23.262Z,7.23
2017-06-24T03:58:55.132Z,6.63
2017-06-24T04:01:27.525Z,9.67
2017-06-24T04:04:00.310Z,6.53
2017-06-24T04:06:32.491Z,6.03
2017-06-24T04:09:04.723Z,7.97
2017-06-24T04:11:37.172Z,6.67
2017-06-24T04:14:11.098Z,7.20
2017-06-24T04:16:43.279Z,6.43
2017-06-24T04:19:15.416Z,6.77
2017-06-24T04:21:47.679Z,9.30
2017-06-24T04:24:20.086Z,7.10
2017-06-24T04:26:52.454Z,6.70
2017-06-24T04:29:24.718Z,6.93
2017-06-24T04:31:57.076Z,8.13
2017-06-24T04:34:30.368Z,8.93
2017-06-24T04:37:03.060Z,8.20
2017-06-24T04:39:35.247Z,6.47
2017-06-24T04:42:09.246Z,8.10
2017-06-24T04:44:40.995Z,5.13
2017-06-24T04:47:13.424Z,7.47
2017-06-24T04:49:46.044Z,7.07
2017-06-24T04:52:18.227Z,5.37
2017-06-24T04:54:51.003Z,5.07
2017-06-24T04:57:26.195Z,5.27
2017-06-24T04:59:58.608Z,8.30
2017-06-24T05:02:31.287Z,6.00
2017-06-24T05:05:03.476Z,9.47
2017-06-24T05:07:36.619Z,6.30
2017-06-24T05:10:09.546Z,7.50
2017-06-24T05:12:41.643Z,8.37
2017-06-24T05:15:14.104Z,5.03
2017-06-24T05:17:46.533Z,6.50
2017-06-24T05:20:18.991Z,8.13
2017-06-24T05:22:51.446Z,6.60
2017-06-24T05:25:23.899Z,6.13
2017-06-24T05:27:57.279Z,5.93
2017-06-24T05:30:29.715Z,5.77
2017-06-24T05:33:02.580Z,6.50
2017-06-24T05:35:34.473Z,7.60
2017-06-24T05:38:06.907Z,6.47
2017-06-24T05:40:39.307Z,6.73
2017-06-24T05:43:11.708Z,6.30
2017-06-24T05:45:44.107Z,6.00
2017-06-24T05:48:17.295Z,6.50
2017-06-24T05:50:50.145Z,6.63
2017-06-24T05:53:22.180Z,5.87
2017-06-24T05:55:54.623Z,9.93
2017-06-24T05:58:26.938Z,7.00
2017-06-24T06:00:59.355Z,7.30
2017-06-24T06:03:31.701Z,8.37
2017-06-24T06:06:04.219Z,5.83
2017-06-24T06:08:36.408Z,8.87
2017-06-24T06:11:08.972Z,7.33
2017-06-24T06:13:41.484Z,9.00
2017-06-24T06:16:13.912Z,10.13
2017-06-24T06:18:46.351Z,8.40
2017-06-24T06:21:18.767Z,8.60
2017-06-24T06:23:52.299Z,7.43
2017-06-24T06:26:25.659Z,6.80
2017-06-24T06:28:58.563Z,7.73
2017-06-24T06:31:30.553Z,8.00
2017-06-24T06:34:02.856Z,9.73
2017-06-24T06:36:35.221Z,10.37
2017-06-24T06:39:08.577Z,7.97
2017-06-24T06:41:41.164Z,8.80
2017-06-24T06:44:13.639Z,10.40
2017-06-24T06:46:46.017Z,7.73
2017-06-24T06:49:18.316Z,9.67
2017-06-24T06:51:50.835Z,11.60
2017-06-24T06:54:23.275Z,10.27
2017-06-24T06:56:55.531Z,8.63
2017-06-24T06:59:27.976Z,9.57
2017-06-24T07:02:00.324Z,10.73
2017-06-24T07:04:32.899Z,9.47
2017-06-24T07:07:05.028Z,9.70
2017-06-24T07:09:37.455Z,10.60
2017-06-24T07:12:10.123Z,10.60
2017-06-24T07:14:42.232Z,10.40
2017-06-24T07:17:15.483Z,11.00
2017-06-24T07:19:48.366Z,11.23
2017-06-24T07:22:20.432Z,13.03
2017-06-24T07:24:53.115Z,11.53
2017-06-24T07:27:25.382Z,12.23
2017-06-24T07:29:57.675Z,10.63
2017-06-24T07:32:29.995Z,17.70
2017-06-24T07:35:02.467Z,15.27
2017-06-24T07:37:34.775Z,14.10
2017-06-24T07:40:07.332Z,15.30
2017-06-24T07:42:39.669Z,16.40
2017-06-24T07:45:12.063Z,14.83
2017-06-24T07:47:44.494Z,14.40
2017-06-24T07:50:16.851Z,15.70
2017-06-24T07:52:49.905Z,14.97
2017-06-24T07:55:22.748Z,16.53
2017-06-24T07:57:55.119Z,18.47
2017-06-24T08:00:28.383Z,16.90
2017-06-24T08:03:00.782Z,15.70
2017-06-24T08:05:34.079Z,16.37
2017-06-24T08:08:06.739Z,15.80
2017-06-24T08:10:38.988Z,16.50
2017-06-24T08:13:11.303Z,17.53
2017-06-24T08:15:43.675Z,15.80
2017-06-24T08:18:16.086Z,19.20
2017-06-24T08:20:48.546Z,18.40
2017-06-24T08:23:20.851Z,17.67
2017-06-24T08:25:53.255Z,19.90
2017-06-24T08:28:25.663Z,18.67
2017-06-24T08:30:58.035Z,19.93
2017-06-24T08:33:30.468Z,18.87
2017-06-24T08:36:02.878Z,19.30
2017-06-24T08:38:35.255Z,18.30
2017-06-24T08:41:07.900Z,19.03
2017-06-24T08:43:40.992Z,20.30
2017-06-24T08:46:13.297Z,20.30
2017-06-24T08:48:45.659Z,24.20
2017-06-24T08:51:18.052Z,17.67
2017-06-24T08:53:57.417Z,19.10
2017-06-24T08:56:29.983Z,21.90
2017-06-24T08:59:02.387Z,20.30
2017-06-24T09:01:34.733Z,16.50
2017-06-24T09:04:07.119Z,18.03
2017-06-24T09:06:39.555Z,20.00
2017-06-24T09:09:11.964Z,18.60
2017-06-24T09:11:45.311Z,17.13
2017-06-24T09:14:17.735Z,16.33
2017-06-24T09:16:51.000Z,18.40
2017-06-24T09:19:23.691Z,19.07
2017-06-24T09:21:56.062Z,17.30
2017-06-24T09:24:28.503Z,15.93
2017-06-24T09:27:00.976Z,16.73
2017-06-24T09:29:34.127Z,16.57
2017-06-24T09:32:06.807Z,16.70
2017-06-24T09:34:39.132Z,16.70
2017-06-24T09:37:12.470Z,17.07
2017-06-24T09:39:44.880Z,15.93
2017-06-24T09:42:17.220Z,18.40
2017-06-24T09:44:49.547Z,17.20
2017-06-24T09:47:24.939Z,16.87
2017-06-24T09:49:58.204Z,16.90
2017-06-24T09:52:31.251Z,17.57
2017-06-24T09:55:03.358Z,17.90
2017-06-24T09:57:35.748Z,19.30
2017-06-24T10:00:08.136Z,17.23
2017-06-24T10:02:40.566Z,18.87
2017-06-24T10:05:12.906Z,16.77
2017-06-24T10:07:46.129Z,18.13
2017-06-24T10:10:18.699Z,20.03
2017-06-24T10:12:51.083Z,17.00
2017-06-24T10:15:24.344Z,16.90
2017-06-24T10:17:56.804Z,17.27
2017-06-24T10:20:29.511Z,15.00
2017-06-24T10:23:01.733Z,17.63
2017-06-24T10:25:34.007Z,13.93
2017-06-24T10:28:06.759Z,13.87
2017-06-24T10:30:39.033Z,12.90
2017-06-24T10:33:11.417Z,12.43
2017-06-24T10:35:43.723Z,13.40
2017-06-24T10:38:16.096Z,10.20
2017-06-24T10:40:48.891Z,12.30
2017-06-24T10:43:20.931Z,12.30
2017-06-24T10:45:53.252Z,11.10
2017-06-24T10:48:25.665Z,12.00
2017-06-24T10:50:58.622Z,12.20
2017-06-24T10:53:30.490Z,12.17
2017-06-24T10:56:02.860Z,11.50
2017-06-24T10:58:35.307Z,9.90
2017-06-24T11:01:07.895Z,8.60
2017-06-24T11:03:40.999Z,8.40
2017-06-24T11:06:13.562Z,10.47
2017-06-24T11:08:46.071Z,11.23
2017-06-24T11:11:18.394Z,11.10
2017-06-24T11:13:50.867Z,9.90
2017-06-24T11:16:23.468Z,10.73
2017-06-24T11:18:55.575Z,11.80
2017-06-24T11:21:27.867Z,11.03
2017-06-24T11:24:00.220Z,11.17
2017-06-24T11:26:32.659Z,9.37
2017-06-24T11:29:05.047Z,10.00
2017-06-24T11:31:37.603Z,8.70
2017-06-24T11:34:11.123Z,9.20
2017-06-24T11:36:43.146Z,8.20
2017-06-24T11:39:15.569Z,8.17
2017-06-24T11:41:47.977Z,7.17
2017-06-24T11:44:20.418Z,8.20
2017-06-24T11:46:52.869Z,7.83
2017-06-24T11:49:25.652Z,8.80
2017-06-24T11:51:57.551Z,9.07
2017-06-24T11:54:29.899Z,9.63
2017-06-24T11:57:02.489Z,10.83
2017-06-24T11:59:34.843Z,10.90
2017-06-24T12:02:08.171Z,10.37
2017-06-24T12:04:41.562Z,10.40
2017-06-24T12:07:14.391Z,10.23
2017-06-24T12:09:46.615Z,10.70
2017-06-24T12:12:18.868Z,11.20
2017-06-24T12:14:51.276Z,11.10
2017-06-24T12:17:24.522Z,10.67
2017-06-24T12:19:57.111Z,10.60
2017-06-24T12:22:30.501Z,11.50
2017-06-24T12:25:02.992Z,12.40
2017-06-24T12:27:35.425Z,10.83
2017-06-24T12:30:07.698Z,11.50
2017-06-24T12:32:41.215Z,13.50
2017-06-24T12:35:13.639Z,13.77
2017-06-24T12:37:47.598Z,12.43
2017-06-24T12:40:19.406Z,12.47
2017-06-24T12:42:51.843Z,12.53
2017-06-24T12:45:24.251Z,11.47
2017-06-24T12:47:56.687Z,13.07
2017-06-24T12:50:29.260Z,11.63
2017-06-24T12:53:01.240Z,11.63
2017-06-24T12:55:33.524Z,12.57
2017-06-24T12:58:05.878Z,12.70
2017-06-24T13:00:38.562Z,11.97
2017-06-24T13:03:11.702Z,12.43
2017-06-24T13:05:44.119Z,14.30
2017-06-24T13:08:16.461Z,11.30
2017-06-24T13:10:49.380Z,13.23
2017-06-24T13:13:22.213Z,12.30
2017-06-24T13:15:54.846Z,13.33
2017-06-24T13:18:27.078Z,12.23
2017-06-24T13:20:59.443Z,12.30
2017-06-24T13:23:31.811Z,11.67
2017-06-24T13:28:43.784Z,12.00
2017-06-24T13:31:16.456Z,12.27
2017-06-24T13:33:49.312Z,13.30
2017-06-24T13:36:21.744Z,10.90
2017-06-24T13:38:54.208Z,12.00
2017-06-24T13:41:27.415Z,9.80
2017-06-24T13:43:59.994Z,11.13
2017-06-24T13:46:32.292Z,9.77
2017-06-24T13:49:05.581Z,11.10
2017-06-24T13:51:38.012Z,10.53
2017-06-24T13:54:10.584Z,10.50
2017-06-24T13:56:43.039Z,10.00
2017-06-24T13:59:15.294Z,13.60
2017-06-24T14:01:47.879Z,10.30
2017-06-24T14:04:19.964Z,7.83
2017-06-24T14:06:52.329Z,10.83
2017-06-24T14:09:25.035Z,13.97
2017-06-24T14:11:57.402Z,9.80
2017-06-24T14:14:29.780Z,9.00
2017-06-24T14:17:02.041Z,11.30
2017-06-24T14:19:34.359Z,12.20
2017-06-24T14:22:06.620Z,10.60
2017-06-24T14:24:39.084Z,10.23
2017-06-24T14:27:11.742Z,9.90
2017-06-24T14:29:43.911Z,9.80
2017-06-24T14:32:16.270Z,9.83
2017-06-24T14:34:48.784Z,9.53
2017-06-24T14:37:21.163Z,9.47
2017-06-24T14:39:53.549Z,9.00
2017-06-24T14:42:27.718Z,8.67
2017-06-24T14:45:00.953Z,10.23
2017-06-24T14:47:32.744Z,7.67
2017-06-24T14:50:05.072Z,8.47
2017-06-24T14:52:38.275Z,8.70
2017-06-24T14:55:11.273Z,9.20
2017-06-24T14:57:43.441Z,9.00
2017-06-24T15:00:16.129Z,10.07
2017-06-24T15:02:48.463Z,10.30
2017-06-24T15:05:20.603Z,11.33
2017-06-24T15:07:52.916Z,7.30
2017-06-24T15:10:25.418Z,8.63
2017-06-24T15:12:57.963Z,9.07
2017-06-24T15:15:30.088Z,8.77
2017-06-24T15:18:02.547Z,9.10
2017-06-24T15:20:34.811Z,10.30
2017-06-24T15:23:07.217Z,8.40
2017-06-24T15:25:39.650Z,8.87
2017-06-24T15:28:12.880Z,8.10
2017-06-24T15:30:45.424Z,7.80
2017-06-24T15:33:18.187Z,8.67
2017-06-24T15:35:50.203Z,7.47
2017-06-24T15:38:23.044Z,8.97
2017-06-24T15:40:55.136Z,9.20
2017-06-24T15:43:27.520Z,9.20
2017-06-24T15:46:00.815Z,10.30
2017-06-24T15:48:33.251Z,9.30
2017-06-24T15:51:05.640Z,8.47
2017-06-24T15:53:38.189Z,10.73
2017-06-24T15:56:10.556Z,10.77
2017-06-24T15:58:42.933Z,10.90
2017-06-24T16:01:15.610Z,12.73
2017-06-24T16:03:47.621Z,10.97
2017-06-24T16:06:20.142Z,10.67
2017-06-24T16:08:52.720Z,10.10
2017-06-24T16:11:24.872Z,11.97
2017-06-24T16:13:57.994Z,12.33
2017-06-24T16:16:30.677Z,11.80
2017-06-24T16:19:03.352Z,12.03
2017-06-24T16:21:35.699Z,11.33
2017-06-24T16:24:08.708Z,11.17
2017-06-24T16:26:41.271Z,12.50
2017-06-24T16:29:13.651Z,11.60
2017-06-24T16:31:46.081Z,11.63
2017-06-24T16:34:18.615Z,13.80
2017-06-24T16:36:51.690Z,12.70
2017-06-24T16:39:24.088Z,10.37
2017-06-24T16:41:57.367Z,10.87
2017-06-24T16:44:29.840Z,9.80
2017-06-24T16:47:02.272Z,11.27
2017-06-24T16:49:35.064Z,11.20
2017-06-24T16:52:07.011Z,9.73
2017-06-24T16:54:39.415Z,10.67
2017-06-24T16:57:11.899Z,10.00
2017-06-24T16:59:44.131Z,12.23
2017-06-24T17:02:16.859Z,10.50
2017-06-24T17:04:48.844Z,10.63
2017-06-24T17:07:21.279Z,11.07
2017-06-24T17:09:53.682Z,9.93
2017-06-24T17:12:27.702Z,12.50
2017-06-24T17:15:01.192Z,13.00
2017-06-24T17:17:34.644Z,12.03
2017-06-24T17:20:07.071Z,12.97
2017-06-24T17:22:39.483Z,15.17
2017-06-24T17:25:11.624Z,12.93
2017-06-24T17:27:44.027Z,15.73
2017-06-24T17:30:16.412Z,15.97
2017-06-24T17:32:48.884Z,15.40
2017-06-24T17:35:21.519Z,19.13
2017-06-24T17:37:53.557Z,16.20
2017-06-24T17:40:26.095Z,17.60
2017-06-24T17:42:58.301Z,15.57
2017-06-24T17:45:31.827Z,16.57
2017-06-24T17:48:04.077Z,17.73
2017-06-24T17:50:36.817Z,15.93
2017-06-24T17:53:08.779Z,18.40
2017-06-24T17:55:41.064Z,17.10
2017-06-24T17:58:13.891Z,17.00
2017-06-24T18:00:45.855Z,16.90
2017-06-24T18:03:18.239Z,17.60
2017-06-24T18:05:50.638Z,14.93
2017-06-24T18:08:22.967Z,16.57
2017-06-24T18:11:37.344Z,16.23
2017-06-24T18:14:09.468Z,16.50
2017-06-24T18:16:42.813Z,15.63
2017-06-24T18:19:15.144Z,16.37
2017-06-24T18:21:47.564Z,15.20
2017-06-24T18:24:20.731Z,17.70
2017-06-24T18:26:53.408Z,16.30
2017-06-24T18:29:25.763Z,15.43
2017-06-24T18:31:59.041Z,17.17
2017-06-24T18:34:31.496Z,16.37
2017-06-24T18:37:03.831Z,15.90
2017-06-24T18:39:36.148Z,16.57
2017-06-24T18:42:08.375Z,17.57
2017-06-24T18:44:40.803Z,17.17
2017-06-24T18:47:13.246Z,17.70
2017-06-24T18:49:45.556Z,17.47
2017-06-24T18:52:17.932Z,18.13
2017-06-24T18:54:51.226Z,15.93
2017-06-24T18:57:24.699Z,17.40
2017-06-24T18:59:57.227Z,17.53
2017-06-24T19:02:29.591Z,16.80
2017-06-24T19:05:02.012Z,16.57
2017-06-24T19:07:34.399Z,14.43
2017-06-24T19:10:06.689Z,15.50
2017-06-24T19:12:39.156Z,15.13
2017-06-24T19:15:11.456Z,15.70
2017-06-24T19:17:43.874Z,15.23
2017-06-24T19:20:16.388Z,15.97
2017-06-24T19:22:49.019Z,15.20
2017-06-24T19:25:21.137Z,13.60
2017-06-24T19:27:53.472Z,17.87
2017-06-24T19:30:25.815Z,15.60
2017-06-24T19:32:58.448Z,14.70
2017-06-24T19:35:31.401Z,15.73
2017-06-24T19:38:03.207Z,15.37
2017-06-24T19:40:35.587Z,14.77
2017-06-24T19:43:08.024Z,15.37
2017-06-24T19:45:40.443Z,15.63
2017-06-24T19:48:12.983Z,14.00
2017-06-24T19:50:45.173Z,14.50
2017-06-24T19:53:17.464Z,15.03
2017-06-24T19:55:49.836Z,17.13
2017-06-24T19:58:22.092Z,15.70
2017-06-24T20:00:54.547Z,17.63
2017-06-24T20:03:26.955Z,15.33
2017-06-24T20:05:59.236Z,16.17
2017-06-24T20:08:32.048Z,13.83
2017-06-24T20:11:04.203Z,14.60
2017-06-24T20:13:36.429Z,12.73
2017-06-24T20:16:08.888Z,13.50
2017-06-24T20:18:41.506Z,13.30
2017-06-24T20:21:13.827Z,13.47
2017-06-24T20:23:46.204Z,12.63
2017-06-24T20:26:18.707Z,13.90
2017-06-24T20:28:52.256Z,11.63
2017-06-24T20:31:25.231Z,11.70
2017-06-24T20:33:58.536Z,12.30
2017-06-24T20:36:31.039Z,10.43
2017-06-24T20:39:03.372Z,10.43
2017-06-24T20:41:35.725Z,10.30
2017-06-24T20:44:08.354Z,11.17
2017-06-24T20:46:40.353Z,13.57
2017-06-24T20:49:12.792Z,9.97
2017-06-24T20:51:45.289Z,10.70
2017-06-24T20:54:18.217Z,11.83
2017-06-24T20:56:51.411Z,11.30
2017-06-24T20:59:23.437Z,9.20
2017-06-24T21:01:55.811Z,10.23
2017-06-24T21:04:28.217Z,9.17
2017-06-24T21:07:00.711Z,10.97
2017-06-24T21:09:34.038Z,9.63
2017-06-24T21:12:07.175Z,9.43
2017-06-24T21:14:39.816Z,9.77
2017-06-24T21:17:12.676Z,9.00
2017-06-24T21:19:45.370Z,8.50
2017-06-24T21:22:18.135Z,9.03
2017-06-24T21:24:50.529Z,8.97
2017-06-24T21:27:22.971Z,9.47
2017-06-24T21:29:55.387Z,10.40
2017-06-24T21:32:27.735Z,10.00
2017-06-24T21:35:00.060Z,9.30
2017-06-24T21:37:32.501Z,8.97
2017-06-24T21:40:04.767Z,9.43
2017-06-24T21:42:37.088Z,9.40
2017-06-24T21:45:09.523Z,9.27
2017-06-24T21:47:42.849Z,9.30
2017-06-24T21:50:15.184Z,9.80
2017-06-24T21:52:47.537Z,9.50
2017-06-24T21:55:19.981Z,10.37
2017-06-24T21:57:52.312Z,10.27
2017-06-24T22:00:24.727Z,9.90
2017-06-24T22:02:57.055Z,9.67
2017-06-24T22:05:29.702Z,8.30
2017-06-24T22:08:01.834Z,9.40
2017-06-24T22:10:34.339Z,8.47
2017-06-24T22:13:06.615Z,8.80
2017-06-24T22:15:38.956Z,8.83
2017-06-24T22:18:11.260Z,8.00
2017-06-24T22:20:43.626Z,8.10
2017-06-24T22:23:16.000Z,8.07
2017-06-24T22:25:49.245Z,6.80
2017-06-24T22:28:21.764Z,8.03
2017-06-24T22:30:54.037Z,7.93
2017-06-24T22:33:26.432Z,8.00
2017-06-24T22:35:58.797Z,7.70
2017-06-24T22:38:31.281Z,7.73
2017-06-24T22:41:03.676Z,7.83
2017-06-24T22:43:36.114Z,7.67
2017-06-24T22:46:08.685Z,8.03
2017-06-24T22:48:41.680Z,9.30
2017-06-24T22:51:14.183Z,6.87
2017-06-24T22:53:46.814Z,7.43
2017-06-24T22:56:19.759Z,7.30
2017-06-24T22:58:54.339Z,7.00
2017-06-24T23:01:26.656Z,7.50
2017-06-24T23:03:59.124Z,7.07
2017-06-24T23:06:32.152Z,7.03
2017-06-24T23:09:04.963Z,8.77
2017-06-24T23:11:38.180Z,8.30
2017-06-24T23:14:11.458Z,8.47
2017-06-24T23:16:44.090Z,8.20
2017-06-24T23:19:16.479Z,7.80
2017-06-24T23:21:48.828Z,8.10
2017-06-24T23:24:21.355Z,8.03
2017-06-24T23:26:53.587Z,9.10
2017-06-24T23:29:26.054Z,10.20
2017-06-24T23:31:58.443Z,8.83
2017-06-24T23:34:30.743Z,8.50
2017-06-24T23:37:03.355Z,8.70
2017-06-24T23:39:37.088Z,8.43
2017-06-24T23:42:10.501Z,8.73
2017-06-24T23:44:43.220Z,8.20
2017-06-24T23:47:15.443Z,9.07
2017-06-24T23:49:48.288Z,9.70
2017-06-24T23:52:21.102Z,8.60
2017-06-24T23:54:53.599Z,8.10
2017-06-24T23:57:25.855Z,9.37
2017-06-24T23:59:58.172Z,9.23
